Beltsville, MD (20704)

5:51 AM EDT on October 22, 2014 (GMT -0400)
High Point Homes | Change Station
CLOSE
Current Station
Personal Weather Station
Location: Beltsville, MD
Elevation: 230 ft
Nearby Weather Stations

Elev 230 ft 39.05 °N, 76.94 °W | Updated 4 seconds ago

Rain
Rain
52.6 °F
Feels Like 52.6 °F
N
0.0
Wind Variable Wind from West
Gusts 0.0 mph

Today
High -- | Low -- °F
--% Chance of Precip.
Yesterday
High -- | Low -- °F
Precip. -- in
7:24 AM 6:19 PM
Waning Crescent, 2% visible
Pressure 29.86 in
Visibility 7.0 miles
Clouds Mostly Cloudy 1200 ft
Mostly Cloudy 3500 ft
Overcast 6000 ft
Dew Point 52 °F
Humidity 96%
Rainfall 0.20 in
Snow Depth Not available.
UV 0 out of 12
Pollen 1.90 out of 12
Air Quality Not available.
Flu Activity Sporadic
METAR KCGS 220930Z AUTO 35004KT 7SM BKN012 BKN035 OVC060 12/11 A2986 RMK AO1

More Conditions Fewer Conditions

Pressure 29.86 in
Visibility 7.0 miles
Clouds Mostly Cloudy 1200 ft
Mostly Cloudy 3500 ft
Overcast 6000 ft
Dew Point 52 °F
Humidity 96%
Rainfall 0.20 in
Snow Depth Not available.
UV 0 out of 12
Pollen 1.90 out of 12
Air Quality Not available.
Flu Activity Sporadic
METAR KCGS 220930Z AUTO 35004KT 7SM BKN012 BKN035 OVC060 12/11 A2986 RMK AO1

More Conditions Fewer Conditions

10-Day Weather Forecast

Almanac

Astronomy

Oct. 22, 2014 Rise Set
Actual Time 7:24 AM EDT 6:19 PM EDT
Civil Twilight 6:57 AM EDT 6:46 PM EDT
Nautical Twilight 6:25 AM EDT 7:17 PM EDT
Astronomical Twilight 5:55 AM EDT 7:48 PM EDT
Moon 6:04 AM EDT 5:44 PM EDT
Length of Visible Light 11h 49m
Length of Day
10h 54m
Tomorrow will be 2m 22s shorter.
Waning Crescent, 2% of the Moon is Illuminated
Today
Waning Crescent
Oct 23
New
Oct 30
First Quarter
Nov 6
Full
Nov 14
Last Quarter

Today's Extremes

State Highs State Lows

Community

WunderPhotos

Upload Photos

1,763,900 photos uploaded!

Nearby

Snow Depth

Station Depth Elevation
No new snow has been reported.

Earthquake Activity

City Distance Mag. Time & Date
No recent earthquake activity has been reported nearby.
Minimum magnitude displayed is 2.5.

Coastal Water Temperatures

Place Temperature
Washington, DC 63.0 °F
Baltimore, MD 66.0 °F
Solomons Island, MD 66.0 °F

Nearby Weather Stations